sensor_id;sensor_type;location;lat;lon;timestamp;pressure;altitude;pressure_sealevel;temperature;humidity
71126;BME280;58785;55.566;38.058;2023-06-14T00:01:50;100690.31;;;11.87;66.89
71126;BME280;58785;55.566;38.058;2023-06-14T00:04:16;100689.88;;;11.82;66.69
71126;BME280;58785;55.566;38.058;2023-06-14T00:06:42;100687.34;;;11.80;66.70
71126;BME280;58785;55.566;38.058;2023-06-14T00:09:11;100692.25;;;11.75;67.05
71126;BME280;58785;55.566;38.058;2023-06-14T00:11:43;100688.03;;;11.72;67.20
71126;BME280;58785;55.566;38.058;2023-06-14T00:14:08;100685.63;;;11.69;67.01
71126;BME280;58785;55.566;38.058;2023-06-14T00:16:35;100689.16;;;11.70;66.77
71126;BME280;58785;55.566;38.058;2023-06-14T00:19:01;100691.97;;;11.68;67.76
71126;BME280;58785;55.566;38.058;2023-06-14T00:21:31;100683.94;;;11.68;67.22
71126;BME280;58785;55.566;38.058;2023-06-14T00:24:00;100677.47;;;11.61;67.24
71126;BME280;58785;55.566;38.058;2023-06-14T00:26:26;100682.69;;;11.63;67.20
71126;BME280;58785;55.566;38.058;2023-06-14T00:28:53;100685.38;;;11.63;66.64
71126;BME280;58785;55.566;38.058;2023-06-14T00:31:18;100678.06;;;11.55;67.62
71126;BME280;58785;55.566;38.058;2023-06-14T00:33:44;100685.78;;;11.58;67.59
71126;BME280;58785;55.566;38.058;2023-06-14T00:36:10;100686.75;;;11.57;67.50
71126;BME280;58785;55.566;38.058;2023-06-14T00:38:36;100678.31;;;11.52;67.53
71126;BME280;58785;55.566;38.058;2023-06-14T00:41:01;100680.72;;;11.55;67.88
71126;BME280;58785;55.566;38.058;2023-06-14T00:43:27;100683.41;;;11.55;67.45
71126;BME280;58785;55.566;38.058;2023-06-14T00:45:53;100679.28;;;11.51;68.30
71126;BME280;58785;55.566;38.058;2023-06-14T00:48:19;100688.88;;;11.54;67.61
71126;BME280;58785;55.566;38.058;2023-06-14T00:50:45;100668.19;;;11.46;67.88
71126;BME280;58785;55.566;38.058;2023-06-14T00:53:12;100685.38;;;11.53;67.89
71126;BME280;58785;55.566;38.058;2023-06-14T00:55:41;100688.72;;;11.55;67.65
71126;BME280;58785;55.566;38.058;2023-06-14T00:58:07;100695.75;;;11.56;68.15
71126;BME280;58785;55.566;38.058;2023-06-14T01:00:33;100690.28;;;11.58;67.61
71126;BME280;58785;55.566;38.058;2023-06-14T01:02:59;100683.94;;;11.59;67.82
71126;BME280;58785;55.566;38.058;2023-06-14T01:05:25;100673.94;;;11.51;67.93
71126;BME280;58785;55.566;38.058;2023-06-14T01:15:42;100685.78;;;11.58;68.31
71126;BME280;58785;55.566;38.058;2023-06-14T01:18:09;100689.84;;;11.62;68.15
71126;BME280;58785;55.566;38.058;2023-06-14T01:20:44;100688.16;;;11.61;68.51
71126;BME280;58785;55.566;38.058;2023-06-14T01:23:17;100683.66;;;11.62;68.58
71126;BME280;58785;55.566;38.058;2023-06-14T01:25:44;100694.50;;;11.70;67.74
71126;BME280;58785;55.566;38.058;2023-06-14T01:28:11;100696.75;;;11.74;68.74
71126;BME280;58785;55.566;38.058;2023-06-14T01:30:40;100699.72;;;11.81;68.70
71126;BME280;58785;55.566;38.058;2023-06-14T01:33:14;100694.53;;;11.89;68.54
71126;BME280;58785;55.566;38.058;2023-06-14T01:35:46;100696.34;;;11.98;68.83
71126;BME280;58785;55.566;38.058;2023-06-14T01:38:13;100686.94;;;12.04;68.10
71126;BME280;58785;55.566;38.058;2023-06-14T01:40:41;100700.69;;;12.19;68.30
71126;BME280;58785;55.566;38.058;2023-06-14T01:43:09;100699.97;;;12.26;68.56
71126;BME280;58785;55.566;38.058;2023-06-14T01:45:36;100700.25;;;12.33;69.08
71126;BME280;58785;55.566;38.058;2023-06-14T01:48:03;100696.69;;;12.42;69.25
71126;BME280;58785;55.566;38.058;2023-06-14T01:50:30;100697.66;;;12.51;69.38
71126;BME280;58785;55.566;38.058;2023-06-14T01:52:57;100685.84;;;12.53;69.32
71126;BME280;58785;55.566;38.058;2023-06-14T01:55:23;100701.94;;;12.71;69.33
71126;BME280;58785;55.566;38.058;2023-06-14T01:57:51;100707.97;;;12.83;69.31
71126;BME280;58785;55.566;38.058;2023-06-14T02:00:17;100702.69;;;12.91;69.11
71126;BME280;58785;55.566;38.058;2023-06-14T02:02:44;100699.28;;;12.99;69.14
71126;BME280;58785;55.566;38.058;2023-06-14T02:05:11;100692.06;;;13.09;68.94
71126;BME280;58785;55.566;38.058;2023-06-14T02:07:37;100695.56;;;13.19;69.06
71126;BME280;58785;55.566;38.058;2023-06-14T02:10:04;100694.13;;;13.25;69.01
71126;BME280;58785;55.566;38.058;2023-06-14T02:12:32;100689.97;;;13.30;68.76
71126;BME280;58785;55.566;38.058;2023-06-14T02:14:58;100685.63;;;13.29;68.71
71126;BME280;58785;55.566;38.058;2023-06-14T02:17:24;100682.19;;;13.37;68.76
71126;BME280;58785;55.566;38.058;2023-06-14T02:19:50;100693.09;;;13.53;68.30
71126;BME280;58785;55.566;38.058;2023-06-14T02:22:16;100692.16;;;13.62;67.82
71126;BME280;58785;55.566;38.058;2023-06-14T02:24:45;100697.97;;;13.75;67.93
71126;BME280;58785;55.566;38.058;2023-06-14T02:27:12;100691.22;;;13.89;67.87
71126;BME280;58785;55.566;38.058;2023-06-14T02:29:38;100698.72;;;14.03;67.35
71126;BME280;58785;55.566;38.058;2023-06-14T02:32:05;100700.53;;;14.21;66.96
71126;BME280;58785;55.566;38.058;2023-06-14T02:34:35;100690.28;;;14.42;65.87
71126;BME280;58785;55.566;38.058;2023-06-14T02:37:02;100701.84;;;14.94;65.27
71126;BME280;58785;55.566;38.058;2023-06-14T02:39:31;100696.31;;;15.55;63.90
71126;BME280;58785;55.566;38.058;2023-06-14T02:41:57;100701.09;;;16.09;63.14
71126;BME280;58785;55.566;38.058;2023-06-14T02:44:26;100702.22;;;16.48;61.94
71126;BME280;58785;55.566;38.058;2023-06-14T02:47:05;100700.50;;;16.79;61.75
71126;BME280;58785;55.566;38.058;2023-06-14T02:49:31;100698.34;;;17.14;61.15
71126;BME280;58785;55.566;38.058;2023-06-14T02:51:57;100692.41;;;17.49;60.29
71126;BME280;58785;55.566;38.058;2023-06-14T02:54:22;100691.19;;;17.83;59.43
71126;BME280;58785;55.566;38.058;2023-06-14T02:56:48;100693.97;;;18.13;58.55
71126;BME280;58785;55.566;38.058;2023-06-14T02:59:14;100692.75;;;18.38;57.85
71126;BME280;58785;55.566;38.058;2023-06-14T03:01:40;100691.00;;;18.60;56.63
71126;BME280;58785;55.566;38.058;2023-06-14T03:04:09;100698.13;;;18.76;56.44
71126;BME280;58785;55.566;38.058;2023-06-14T03:06:35;100697.72;;;18.93;55.94
71126;BME280;58785;55.566;38.058;2023-06-14T03:09:03;100693.88;;;19.17;55.40
71126;BME280;58785;55.566;38.058;2023-06-14T03:11:32;100697.09;;;19.42;54.73
71126;BME280;58785;55.566;38.058;2023-06-14T03:13:58;100693.16;;;19.60;54.59
71126;BME280;58785;55.566;38.058;2023-06-14T03:16:23;100697.94;;;19.79;54.15
71126;BME280;58785;55.566;38.058;2023-06-14T03:18:51;100704.66;;;20.04;53.51
71126;BME280;58785;55.566;38.058;2023-06-14T03:21:17;100700.88;;;20.27;53.22
71126;BME280;58785;55.566;38.058;2023-06-14T03:23:43;100697.72;;;20.45;52.67
71126;BME280;58785;55.566;38.058;2023-06-14T03:26:10;100699.03;;;20.55;52.37
71126;BME280;58785;55.566;38.058;2023-06-14T03:28:39;100708.06;;;20.69;51.83
71126;BME280;58785;55.566;38.058;2023-06-14T03:31:05;100710.44;;;20.79;51.36
71126;BME280;58785;55.566;38.058;2023-06-14T03:33:31;100701.03;;;20.75;51.13
71126;BME280;58785;55.566;38.058;2023-06-14T03:35:58;100703.13;;;20.79;51.01
71126;BME280;58785;55.566;38.058;2023-06-14T03:38:23;100692.97;;;20.88;50.78
71126;BME280;58785;55.566;38.058;2023-06-14T03:40:49;100700.09;;;20.95;50.40
71126;BME280;58785;55.566;38.058;2023-06-14T03:43:15;100700.56;;;21.06;50.06
71126;BME280;58785;55.566;38.058;2023-06-14T03:45:44;100702.25;;;21.13;49.74
71126;BME280;58785;55.566;38.058;2023-06-14T03:48:10;100709.38;;;21.21;50.03
71126;BME280;58785;55.566;38.058;2023-06-14T03:50:36;100694.22;;;21.27;49.43
71126;BME280;58785;55.566;38.058;2023-06-14T03:53:05;100701.97;;;21.43;49.14
71126;BME280;58785;55.566;38.058;2023-06-14T03:55:31;100708.91;;;21.45;48.99
71126;BME280;58785;55.566;38.058;2023-06-14T03:57:58;100701.19;;;21.49;48.92
71126;BME280;58785;55.566;38.058;2023-06-14T04:00:24;100701.81;;;21.51;48.77
71126;BME280;58785;55.566;38.058;2023-06-14T04:02:50;100705.81;;;21.68;48.74
71126;BME280;58785;55.566;38.058;2023-06-14T04:05:16;100702.53;;;21.86;48.83
71126;BME280;58785;55.566;38.058;2023-06-14T04:07:45;100698.34;;;21.90;48.15
71126;BME280;58785;55.566;38.058;2023-06-14T04:10:12;100688.94;;;21.86;48.24
71126;BME280;58785;55.566;38.058;2023-06-14T04:12:39;100700.44;;;22.01;48.12
71126;BME280;58785;55.566;38.058;2023-06-14T04:15:05;100688.34;;;22.11;47.52
71126;BME280;58785;55.566;38.058;2023-06-14T04:17:32;100691.06;;;22.17;47.27
71126;BME280;58785;55.566;38.058;2023-06-14T04:20:01;100689.63;;;22.15;47.11
71126;BME280;58785;55.566;38.058;2023-06-14T04:22:30;100701.09;;;22.23;46.89
71126;BME280;58785;55.566;38.058;2023-06-14T04:24:57;100696.91;;;22.34;46.89
71126;BME280;58785;55.566;38.058;2023-06-14T04:27:23;100698.59;;;22.48;46.68
71126;BME280;58785;55.566;38.058;2023-06-14T04:29:52;100694.81;;;22.56;46.83
71126;BME280;58785;55.566;38.058;2023-06-14T04:32:26;100688.31;;;22.57;46.58
71126;BME280;58785;55.566;38.058;2023-06-14T04:34:53;100697.09;;;22.65;46.32
71126;BME280;58785;55.566;38.058;2023-06-14T04:37:22;100688.09;;;22.58;46.15
71126;BME280;58785;55.566;38.058;2023-06-14T04:39:48;100693.75;;;22.50;46.03
71126;BME280;58785;55.566;38.058;2023-06-14T04:42:16;100691.03;;;22.57;46.16
71126;BME280;58785;55.566;38.058;2023-06-14T04:44:42;100686.22;;;22.59;45.41
71126;BME280;58785;55.566;38.058;2023-06-14T04:47:09;100679.31;;;22.63;45.52
71126;BME280;58785;55.566;38.058;2023-06-14T04:49:35;100678.03;;;22.72;45.54
71126;BME280;58785;55.566;38.058;2023-06-14T04:52:01;100682.81;;;22.97;45.40
71126;BME280;58785;55.566;38.058;2023-06-14T04:54:33;100683.34;;;23.18;44.83
71126;BME280;58785;55.566;38.058;2023-06-14T04:57:31;100684.72;;;23.34;44.41
71126;BME280;58785;55.566;38.058;2023-06-14T05:00:02;100689.31;;;23.40;44.31
71126;BME280;58785;55.566;38.058;2023-06-14T05:02:33;100686.38;;;23.42;43.95
71126;BME280;58785;55.566;38.058;2023-06-14T05:05:10;100681.22;;;23.27;44.00
71126;BME280;58785;55.566;38.058;2023-06-14T05:07:38;100688.09;;;23.36;44.14
71126;BME280;58785;55.566;38.058;2023-06-14T05:10:08;100676.50;;;23.47;43.73
71126;BME280;58785;55.566;38.058;2023-06-14T05:12:39;100677.06;;;23.63;43.49
71126;BME280;58785;55.566;38.058;2023-06-14T05:15:17;100675.97;;;23.70;43.08
71126;BME280;58785;55.566;38.058;2023-06-14T05:17:54;100685.72;;;23.85;42.71
71126;BME280;58785;55.566;38.058;2023-06-14T05:20:23;100679.16;;;23.92;42.99
71126;BME280;58785;55.566;38.058;2023-06-14T05:22:54;100686.13;;;24.13;42.45
71126;BME280;58785;55.566;38.058;2023-06-14T05:25:34;100681.22;;;24.22;42.17
71126;BME280;58785;55.566;38.058;2023-06-14T05:28:00;100678.81;;;24.39;41.97
71126;BME280;58785;55.566;38.058;2023-06-14T05:30:25;100676.53;;;24.35;41.40
71126;BME280;58785;55.566;38.058;2023-06-14T05:32:51;100676.09;;;24.39;41.48
71126;BME280;58785;55.566;38.058;2023-06-14T05:35:18;100674.34;;;24.44;41.23
71126;BME280;58785;55.566;38.058;2023-06-14T05:37:43;100676.13;;;24.57;41.02
71126;BME280;58785;55.566;38.058;2023-06-14T05:40:09;100674.31;;;24.69;40.56
71126;BME280;58785;55.566;38.058;2023-06-14T05:42:35;100675.38;;;24.68;40.22
71126;BME280;58785;55.566;38.058;2023-06-14T05:45:01;100672.94;;;24.78;40.37
71126;BME280;58785;55.566;38.058;2023-06-14T05:47:27;100673.72;;;24.85;40.05
71126;BME280;58785;55.566;38.058;2023-06-14T05:49:53;100672.13;;;24.96;40.05
71126;BME280;58785;55.566;38.058;2023-06-14T05:52:20;100673.78;;;24.97;39.83
71126;BME280;58785;55.566;38.058;2023-06-14T05:54:46;100673.72;;;25.04;39.51
71126;BME280;58785;55.566;38.058;2023-06-14T05:57:11;100677.28;;;25.04;39.32
71126;BME280;58785;55.566;38.058;2023-06-14T05:59:37;100662.88;;;24.97;38.85
71126;BME280;58785;55.566;38.058;2023-06-14T06:02:03;100683.66;;;25.16;38.64
71126;BME280;58785;55.566;38.058;2023-06-14T06:04:29;100679.19;;;25.04;38.67
71126;BME280;58785;55.566;38.058;2023-06-14T06:06:54;100678.94;;;25.05;38.61
71126;BME280;58785;55.566;38.058;2023-06-14T06:09:20;100686.75;;;25.20;38.08
71126;BME280;58785;55.566;38.058;2023-06-14T06:11:45;100691.91;;;25.28;37.97
71126;BME280;58785;55.566;38.058;2023-06-14T06:14:11;100680.28;;;25.33;37.63
71126;BME280;58785;55.566;38.058;2023-06-14T06:16:37;100678.19;;;25.16;37.73
71126;BME280;58785;55.566;38.058;2023-06-14T06:19:02;100686.94;;;25.07;37.68
71126;BME280;58785;55.566;38.058;2023-06-14T06:21:28;100686.13;;;25.00;37.62
71126;BME280;58785;55.566;38.058;2023-06-14T06:23:54;100687.13;;;24.87;37.58
71126;BME280;58785;55.566;38.058;2023-06-14T06:26:22;100681.06;;;25.03;37.81
71126;BME280;58785;55.566;38.058;2023-06-14T06:28:48;100673.72;;;25.04;36.95
71126;BME280;58785;55.566;38.058;2023-06-14T06:31:14;100681.38;;;25.13;36.66
71126;BME280;58785;55.566;38.058;2023-06-14T06:33:40;100686.59;;;25.15;36.65
71126;BME280;58785;55.566;38.058;2023-06-14T06:36:06;100686.59;;;24.97;36.63
71126;BME280;58785;55.566;38.058;2023-06-14T06:38:32;100687.03;;;24.93;36.63
71126;BME280;58785;55.566;38.058;2023-06-14T06:40:57;100678.25;;;24.91;36.45
71126;BME280;58785;55.566;38.058;2023-06-14T06:43:23;100694.38;;;24.93;36.41
71126;BME280;58785;55.566;38.058;2023-06-14T06:45:49;100689.69;;;24.82;36.35
71126;BME280;58785;55.566;38.058;2023-06-14T06:48:15;100683.88;;;24.78;36.20
71126;BME280;58785;55.566;38.058;2023-06-14T06:50:41;100686.28;;;24.86;36.23
71126;BME280;58785;55.566;38.058;2023-06-14T06:53:07;100686.13;;;24.81;35.81
71126;BME280;58785;55.566;38.058;2023-06-14T06:55:33;100680.91;;;24.80;35.95
71126;BME280;58785;55.566;38.058;2023-06-14T06:57:58;100681.28;;;24.83;35.78
71126;BME280;58785;55.566;38.058;2023-06-14T07:00:25;100679.56;;;25.07;35.63
71126;BME280;58785;55.566;38.058;2023-06-14T07:02:50;100669.50;;;25.08;35.59
71126;BME280;58785;55.566;38.058;2023-06-14T07:05:17;100665.94;;;25.07;35.63
71126;BME280;58785;55.566;38.058;2023-06-14T07:07:43;100666.03;;;24.94;35.30
71126;BME280;58785;55.566;38.058;2023-06-14T07:10:09;100664.91;;;24.83;35.29
71126;BME280;58785;55.566;38.058;2023-06-14T07:12:34;100671.06;;;24.79;35.34
71126;BME280;58785;55.566;38.058;2023-06-14T07:15:05;100666.66;;;24.78;35.99
71126;BME280;58785;55.566;38.058;2023-06-14T07:17:32;100665.91;;;24.89;36.57
71126;BME280;58785;55.566;38.058;2023-06-14T07:19:57;100673.63;;;24.92;36.16
71126;BME280;58785;55.566;38.058;2023-06-14T07:22:23;100663.47;;;24.99;36.12
71126;BME280;58785;55.566;38.058;2023-06-14T07:24:49;100663.16;;;24.89;35.78
71126;BME280;58785;55.566;38.058;2023-06-14T07:27:15;100667.03;;;24.81;35.58
71126;BME280;58785;55.566;38.058;2023-06-14T07:29:40;100665.59;;;24.79;35.14
71126;BME280;58785;55.566;38.058;2023-06-14T07:32:06;100662.94;;;24.72;35.49
71126;BME280;58785;55.566;38.058;2023-06-14T07:34:32;100648.16;;;24.80;35.47
71126;BME280;58785;55.566;38.058;2023-06-14T07:36:58;100653.63;;;24.98;35.91
71126;BME280;58785;55.566;38.058;2023-06-14T07:39:23;100661.00;;;25.16;35.64
71126;BME280;58785;55.566;38.058;2023-06-14T07:41:49;100659.69;;;25.18;35.61
71126;BME280;58785;55.566;38.058;2023-06-14T07:44:15;100655.41;;;25.22;35.67
71126;BME280;58785;55.566;38.058;2023-06-14T07:46:41;100661.81;;;25.16;35.57
71126;BME280;58785;55.566;38.058;2023-06-14T07:49:07;100657.19;;;25.17;35.33
71126;BME280;58785;55.566;38.058;2023-06-14T07:51:33;100664.91;;;25.20;35.63
71126;BME280;58785;55.566;38.058;2023-06-14T07:53:59;100647.34;;;25.16;35.06
71126;BME280;58785;55.566;38.058;2023-06-14T07:56:28;100650.75;;;25.11;34.95
71126;BME280;58785;55.566;38.058;2023-06-14T07:58:54;100650.22;;;25.03;35.07
71126;BME280;58785;55.566;38.058;2023-06-14T08:01:20;100655.22;;;24.87;34.95
71126;BME280;58785;55.566;38.058;2023-06-14T08:03:45;100663.09;;;24.77;35.48
71126;BME280;58785;55.566;38.058;2023-06-14T08:06:11;100652.78;;;24.61;35.90
71126;BME280;58785;55.566;38.058;2023-06-14T08:08:37;100657.78;;;24.64;35.76
71126;BME280;58785;55.566;38.058;2023-06-14T08:11:03;100657.19;;;24.80;35.60
71126;BME280;58785;55.566;38.058;2023-06-14T08:13:28;100661.03;;;24.91;35.66
71126;BME280;58785;55.566;38.058;2023-06-14T08:15:54;100650.72;;;24.93;35.45
71126;BME280;58785;55.566;38.058;2023-06-14T08:18:22;100649.22;;;24.79;36.02
71126;BME280;58785;55.566;38.058;2023-06-14T08:20:48;100644.59;;;24.79;35.89
71126;BME280;58785;55.566;38.058;2023-06-14T08:23:14;100652.31;;;24.82;35.83
71126;BME280;58785;55.566;38.058;2023-06-14T08:25:40;100640.81;;;24.80;35.48
71126;BME280;58785;55.566;38.058;2023-06-14T08:28:05;100650.06;;;24.79;35.60
71126;BME280;58785;55.566;38.058;2023-06-14T08:30:31;100639.91;;;24.86;35.55
71126;BME280;58785;55.566;38.058;2023-06-14T08:32:57;100635.59;;;24.97;35.57
71126;BME280;58785;55.566;38.058;2023-06-14T08:35:22;100642.09;;;25.14;35.42
71126;BME280;58785;55.566;38.058;2023-06-14T08:37:49;100636.75;;;25.08;35.65
71126;BME280;58785;55.566;38.058;2023-06-14T08:40:19;100646.19;;;25.05;35.50
71126;BME280;58785;55.566;38.058;2023-06-14T08:42:50;100639.31;;;25.03;35.50
71126;BME280;58785;55.566;38.058;2023-06-14T08:45:16;100636.88;;;25.13;35.35
71126;BME280;58785;55.566;38.058;2023-06-14T08:47:42;100626.78;;;25.13;34.89
71126;BME280;58785;55.566;38.058;2023-06-14T08:50:08;100628.44;;;25.14;35.24
71126;BME280;58785;55.566;38.058;2023-06-14T08:52:38;100632.50;;;25.23;35.54
71126;BME280;58785;55.566;38.058;2023-06-14T08:55:11;100632.91;;;25.27;35.59
71126;BME280;58785;55.566;38.058;2023-06-14T08:57:37;100616.63;;;25.20;35.36
71126;BME280;58785;55.566;38.058;2023-06-14T09:00:07;100619.41;;;25.14;35.57
71126;BME280;58785;55.566;38.058;2023-06-14T09:02:39;100625.59;;;25.09;35.55
71126;BME280;58785;55.566;38.058;2023-06-14T09:05:12;100623.22;;;25.13;35.39
71126;BME280;58785;55.566;38.058;2023-06-14T09:07:41;100622.53;;;25.17;35.11
71126;BME280;58785;55.566;38.058;2023-06-14T09:10:09;100614.47;;;25.22;34.72
71126;BME280;58785;55.566;38.058;2023-06-14T09:12:35;100614.03;;;25.26;35.22
71126;BME280;58785;55.566;38.058;2023-06-14T09:15:02;100612.13;;;25.26;35.21
71126;BME280;58785;55.566;38.058;2023-06-14T09:17:38;100608.69;;;25.31;35.05
71126;BME280;58785;55.566;38.058;2023-06-14T09:20:11;100612.47;;;25.18;34.95
71126;BME280;58785;55.566;38.058;2023-06-14T09:22:46;100608.53;;;24.96;35.08
71126;BME280;58785;55.566;38.058;2023-06-14T09:25:12;100608.25;;;24.85;35.55
71126;BME280;58785;55.566;38.058;2023-06-14T09:27:41;100608.53;;;24.96;35.17
71126;BME280;58785;55.566;38.058;2023-06-14T09:30:09;100602.44;;;24.93;35.24
71126;BME280;58785;55.566;38.058;2023-06-14T09:32:39;100600.66;;;24.87;35.28
71126;BME280;58785;55.566;38.058;2023-06-14T09:35:08;100600.25;;;24.84;35.20
71126;BME280;58785;55.566;38.058;2023-06-14T09:37:34;100595.75;;;24.78;35.82
71126;BME280;58785;55.566;38.058;2023-06-14T09:40:01;100588.38;;;24.78;35.50
71126;BME280;58785;55.566;38.058;2023-06-14T09:42:29;100597.88;;;24.76;35.47
71126;BME280;58785;55.566;38.058;2023-06-14T09:44:56;100591.41;;;24.70;35.18
71126;BME280;58785;55.566;38.058;2023-06-14T09:47:23;100578.31;;;24.60;35.17
71126;BME280;58785;55.566;38.058;2023-06-14T09:49:50;100584.31;;;24.51;35.37
71126;BME280;58785;55.566;38.058;2023-06-14T09:52:21;100567.75;;;24.27;35.83
71126;BME280;58785;55.566;38.058;2023-06-14T09:54:47;100596.91;;;24.27;35.58
71126;BME280;58785;55.566;38.058;2023-06-14T09:57:16;100590.41;;;24.28;35.79
71126;BME280;58785;55.566;38.058;2023-06-14T09:59:46;100589.31;;;24.35;35.56
71126;BME280;58785;55.566;38.058;2023-06-14T10:02:26;100576.72;;;24.34;34.97
71126;BME280;58785;55.566;38.058;2023-06-14T10:05:08;100573.91;;;24.41;35.37
71126;BME280;58785;55.566;38.058;2023-06-14T10:07:59;100572.31;;;24.52;35.32
71126;BME280;58785;55.566;38.058;2023-06-14T10:10:29;100569.78;;;24.57;35.06
71126;BME280;58785;55.566;38.058;2023-06-14T10:12:56;100572.63;;;24.44;35.20
71126;BME280;58785;55.566;38.058;2023-06-14T10:15:38;100577.19;;;24.25;34.96
71126;BME280;58785;55.566;38.058;2023-06-14T10:18:17;100568.66;;;24.21;35.39
71126;BME280;58785;55.566;38.058;2023-06-14T10:21:08;100571.25;;;24.16;35.41
71126;BME280;58785;55.566;38.058;2023-06-14T10:23:41;100557.94;;;24.26;35.56
71126;BME280;58785;55.566;38.058;2023-06-14T10:26:08;100548.09;;;24.25;35.25
71126;BME280;58785;55.566;38.058;2023-06-14T10:28:55;100563.53;;;24.31;35.10
71126;BME280;58785;55.566;38.058;2023-06-14T10:31:22;100561.66;;;24.32;35.18
71126;BME280;58785;55.566;38.058;2023-06-14T10:33:56;100556.19;;;24.32;35.83
71126;BME280;58785;55.566;38.058;2023-06-14T10:39:09;100565.47;;;24.24;35.91
71126;BME280;58785;55.566;38.058;2023-06-14T10:41:38;100566.09;;;24.26;36.15
71126;BME280;58785;55.566;38.058;2023-06-14T10:46:40;100553.91;;;24.29;35.85
71126;BME280;58785;55.566;38.058;2023-06-14T10:49:06;100544.28;;;24.26;35.78
71126;BME280;58785;55.566;38.058;2023-06-14T10:51:39;100545.97;;;24.27;35.55
71126;BME280;58785;55.566;38.058;2023-06-14T10:54:12;100543.66;;;24.24;36.28
71126;BME280;58785;55.566;38.058;2023-06-14T10:59:17;100540.81;;;24.19;36.23
71126;BME280;58785;55.566;38.058;2023-06-14T11:01:57;100545.34;;;24.25;35.75
71126;BME280;58785;55.566;38.058;2023-06-14T11:04:51;100543.84;;;24.29;36.15
71126;BME280;58785;55.566;38.058;2023-06-14T11:12:49;100534.41;;;24.32;35.69
71126;BME280;58785;55.566;38.058;2023-06-14T11:15:17;100532.31;;;24.27;35.39
71126;BME280;58785;55.566;38.058;2023-06-14T11:17:51;100532.31;;;24.27;35.92
71126;BME280;58785;55.566;38.058;2023-06-14T11:20:18;100521.03;;;24.24;35.88
71126;BME280;58785;55.566;38.058;2023-06-14T11:22:45;100530.00;;;24.31;35.71
71126;BME280;58785;55.566;38.058;2023-06-14T11:25:12;100519.28;;;24.29;35.61
71126;BME280;58785;55.566;38.058;2023-06-14T11:27:37;100531.50;;;24.27;36.08
71126;BME280;58785;55.566;38.058;2023-06-14T11:30:07;100524.31;;;24.32;35.90
71126;BME280;58785;55.566;38.058;2023-06-14T11:32:33;100522.00;;;24.36;35.89
71126;BME280;58785;55.566;38.058;2023-06-14T11:34:58;100519.16;;;24.43;35.73
71126;BME280;58785;55.566;38.058;2023-06-14T11:37:27;100522.66;;;24.50;36.08
71126;BME280;58785;55.566;38.058;2023-06-14T11:40:01;100521.94;;;24.54;36.07
71126;BME280;58785;55.566;38.058;2023-06-14T11:42:30;100521.00;;;24.49;35.59
71126;BME280;58785;55.566;38.058;2023-06-14T11:44:56;100518.94;;;24.44;35.94
71126;BME280;58785;55.566;38.058;2023-06-14T11:47:22;100519.31;;;24.48;35.75
71126;BME280;58785;55.566;38.058;2023-06-14T11:49:47;100514.94;;;24.47;35.68
71126;BME280;58785;55.566;38.058;2023-06-14T11:52:14;100511.97;;;24.48;35.26
71126;BME280;58785;55.566;38.058;2023-06-14T11:54:40;100510.75;;;24.44;35.04
71126;BME280;58785;55.566;38.058;2023-06-14T11:57:09;100507.81;;;24.46;35.41
71126;BME280;58785;55.566;38.058;2023-06-14T11:59:39;100498.19;;;24.43;35.69
71126;BME280;58785;55.566;38.058;2023-06-14T12:02:06;100506.13;;;24.45;35.06
71126;BME280;58785;55.566;38.058;2023-06-14T12:04:32;100491.91;;;24.43;35.28
71126;BME280;58785;55.566;38.058;2023-06-14T12:07:11;100492.72;;;24.43;34.93
71126;BME280;58785;55.566;38.058;2023-06-14T12:12:24;100483.00;;;24.35;34.33
71126;BME280;58785;55.566;38.058;2023-06-14T12:14:54;100490.72;;;24.39;34.33
71126;BME280;58785;55.566;38.058;2023-06-14T12:17:22;100482.66;;;24.44;34.69
71126;BME280;58785;55.566;38.058;2023-06-14T12:19:48;100474.47;;;24.44;34.67
71126;BME280;58785;55.566;38.058;2023-06-14T12:22:16;100485.78;;;24.47;34.51
71126;BME280;58785;55.566;38.058;2023-06-14T12:24:45;100465.94;;;24.40;34.52
71126;BME280;58785;55.566;38.058;2023-06-14T12:27:12;100470.91;;;24.43;35.33
71126;BME280;58785;55.566;38.058;2023-06-14T12:29:41;100463.81;;;24.42;34.91
71126;BME280;58785;55.566;38.058;2023-06-14T12:32:09;100470.69;;;24.45;35.36
71126;BME280;58785;55.566;38.058;2023-06-14T12:34:35;100476.59;;;24.42;35.78
71126;BME280;58785;55.566;38.058;2023-06-14T12:37:01;100472.16;;;24.47;35.67
71126;BME280;58785;55.566;38.058;2023-06-14T12:39:32;100472.38;;;24.46;35.80
71126;BME280;58785;55.566;38.058;2023-06-14T12:41:58;100474.88;;;24.47;35.66
71126;BME280;58785;55.566;38.058;2023-06-14T12:44:24;100474.28;;;24.45;35.86
71126;BME280;58785;55.566;38.058;2023-06-14T12:46:50;100480.91;;;24.49;35.58
71126;BME280;58785;55.566;38.058;2023-06-14T12:49:18;100465.41;;;24.50;35.89
71126;BME280;58785;55.566;38.058;2023-06-14T12:51:45;100475.00;;;24.52;35.53
71126;BME280;58785;55.566;38.058;2023-06-14T12:54:11;100452.22;;;24.47;35.33
71126;BME280;58785;55.566;38.058;2023-06-14T12:56:37;100457.81;;;24.52;35.50
71126;BME280;58785;55.566;38.058;2023-06-14T12:59:03;100465.16;;;24.51;35.43
71126;BME280;58785;55.566;38.058;2023-06-14T13:01:28;100462.78;;;24.55;35.57
71126;BME280;58785;55.566;38.058;2023-06-14T13:03:54;100473.63;;;24.61;35.29
71126;BME280;58785;55.566;38.058;2023-06-14T13:06:22;100464.00;;;24.59;35.46
71126;BME280;58785;55.566;38.058;2023-06-14T13:08:48;100445.16;;;24.57;35.24